sensor_id;sensor_type;location;lat;lon;timestamp;P1;durP1;ratioP1;P2;durP2;ratioP2
44366;SDS011;30086;57.660;12.000;2022-12-16T00:01:19;9.52;;;5.22;;
44366;SDS011;30086;57.660;12.000;2022-12-16T00:03:49;8.73;;;3.80;;
44366;SDS011;30086;57.660;12.000;2022-12-16T00:06:17;22.13;;;8.20;;
44366;SDS011;30086;57.660;12.000;2022-12-16T00:08:46;25.75;;;10.73;;
44366;SDS011;30086;57.660;12.000;2022-12-16T00:11:13;27.15;;;10.80;;
44366;SDS011;30086;57.660;12.000;2022-12-16T00:13:39;23.45;;;10.98;;
44366;SDS011;30086;57.660;12.000;2022-12-16T00:16:06;22.77;;;11.68;;
44366;SDS011;30086;57.660;12.000;2022-12-16T00:18:33;27.50;;;11.63;;
44366;SDS011;30086;57.660;12.000;2022-12-16T00:20:59;26.42;;;10.73;;
44366;SDS011;30086;57.660;12.000;2022-12-16T00:23:26;21.42;;;9.50;;
44366;SDS011;30086;57.660;12.000;2022-12-16T00:25:52;17.08;;;8.23;;
44366;SDS011;30086;57.660;12.000;2022-12-16T00:28:18;22.35;;;8.65;;
44366;SDS011;30086;57.660;12.000;2022-12-16T00:30:48;18.13;;;8.13;;
44366;SDS011;30086;57.660;12.000;2022-12-16T00:33:17;17.33;;;8.32;;
44366;SDS011;30086;57.660;12.000;2022-12-16T00:35:44;27.25;;;9.00;;
44366;SDS011;30086;57.660;12.000;2022-12-16T00:38:10;17.17;;;7.55;;
44366;SDS011;30086;57.660;12.000;2022-12-16T00:40:36;19.38;;;8.63;;
44366;SDS011;30086;57.660;12.000;2022-12-16T00:43:02;17.23;;;8.30;;
44366;SDS011;30086;57.660;12.000;2022-12-16T00:45:29;21.80;;;8.80;;
44366;SDS011;30086;57.660;12.000;2022-12-16T00:47:55;18.05;;;8.98;;
44366;SDS011;30086;57.660;12.000;2022-12-16T00:50:21;19.35;;;7.75;;
44366;SDS011;30086;57.660;12.000;2022-12-16T00:52:48;17.55;;;7.57;;
44366;SDS011;30086;57.660;12.000;2022-12-16T00:55:14;18.33;;;7.82;;
44366;SDS011;30086;57.660;12.000;2022-12-16T00:57:42;17.08;;;6.93;;
44366;SDS011;30086;57.660;12.000;2022-12-16T01:00:08;18.10;;;8.05;;
44366;SDS011;30086;57.660;12.000;2022-12-16T01:02:46;16.98;;;7.78;;
44366;SDS011;30086;57.660;12.000;2022-12-16T01:05:13;19.73;;;7.85;;
44366;SDS011;30086;57.660;12.000;2022-12-16T01:07:40;18.48;;;8.15;;
44366;SDS011;30086;57.660;12.000;2022-12-16T01:10:06;17.17;;;8.15;;
44366;SDS011;30086;57.660;12.000;2022-12-16T01:12:34;17.73;;;7.85;;
44366;SDS011;30086;57.660;12.000;2022-12-16T01:15:01;18.23;;;8.85;;
44366;SDS011;30086;57.660;12.000;2022-12-16T01:17:27;19.88;;;8.00;;
44366;SDS011;30086;57.660;12.000;2022-12-16T01:19:53;19.35;;;8.45;;
44366;SDS011;30086;57.660;12.000;2022-12-16T01:22:20;31.23;;;9.00;;
44366;SDS011;30086;57.660;12.000;2022-12-16T01:24:46;16.80;;;7.82;;
44366;SDS011;30086;57.660;12.000;2022-12-16T01:27:12;25.13;;;8.65;;
44366;SDS011;30086;57.660;12.000;2022-12-16T01:29:41;24.67;;;9.60;;
44366;SDS011;30086;57.660;12.000;2022-12-16T01:32:08;21.92;;;8.93;;
44366;SDS011;30086;57.660;12.000;2022-12-16T01:34:35;25.52;;;9.90;;
44366;SDS011;30086;57.660;12.000;2022-12-16T01:37:01;21.20;;;8.32;;
44366;SDS011;30086;57.660;12.000;2022-12-16T01:39:27;23.35;;;7.85;;
44366;SDS011;30086;57.660;12.000;2022-12-16T01:41:54;19.35;;;7.10;;
44366;SDS011;30086;57.660;12.000;2022-12-16T01:44:24;19.38;;;7.78;;
44366;SDS011;30086;57.660;12.000;2022-12-16T01:46:54;20.10;;;7.63;;
44366;SDS011;30086;57.660;12.000;2022-12-16T01:49:25;23.88;;;9.00;;
44366;SDS011;30086;57.660;12.000;2022-12-16T01:51:53;22.23;;;8.07;;
44366;SDS011;30086;57.660;12.000;2022-12-16T01:54:21;18.90;;;8.93;;
44366;SDS011;30086;57.660;12.000;2022-12-16T01:56:50;18.65;;;8.30;;
44366;SDS011;30086;57.660;12.000;2022-12-16T01:59:18;19.40;;;7.32;;
44366;SDS011;30086;57.660;12.000;2022-12-16T02:01:45;17.00;;;7.50;;
44366;SDS011;30086;57.660;12.000;2022-12-16T02:04:11;15.32;;;6.72;;
44366;SDS011;30086;57.660;12.000;2022-12-16T02:06:37;13.93;;;7.20;;
44366;SDS011;30086;57.660;12.000;2022-12-16T02:09:05;15.30;;;6.20;;
44366;SDS011;30086;57.660;12.000;2022-12-16T02:32:24;19.40;;;7.13;;
44366;SDS011;30086;57.660;12.000;2022-12-16T02:34:54;16.98;;;7.10;;
44366;SDS011;30086;57.660;12.000;2022-12-16T02:37:32;13.73;;;6.18;;
44366;SDS011;30086;57.660;12.000;2022-12-16T02:40:08;12.60;;;6.10;;
44366;SDS011;30086;57.660;12.000;2022-12-16T02:42:41;12.98;;;6.82;;
44366;SDS011;30086;57.660;12.000;2022-12-16T02:47:37;15.77;;;6.32;;
44366;SDS011;30086;57.660;12.000;2022-12-16T02:50:04;14.82;;;7.43;;
44366;SDS011;30086;57.660;12.000;2022-12-16T02:52:41;16.65;;;6.97;;
44366;SDS011;30086;57.660;12.000;2022-12-16T02:55:08;13.10;;;6.88;;
44366;SDS011;30086;57.660;12.000;2022-12-16T03:00:10;14.73;;;6.55;;
44366;SDS011;30086;57.660;12.000;2022-12-16T03:02:48;16.33;;;7.80;;
44366;SDS011;30086;57.660;12.000;2022-12-16T03:05:22;10.27;;;5.78;;
44366;SDS011;30086;57.660;12.000;2022-12-16T03:07:51;10.75;;;6.35;;
44366;SDS011;30086;57.660;12.000;2022-12-16T03:10:20;16.05;;;6.80;;
44366;SDS011;30086;57.660;12.000;2022-12-16T03:12:46;15.52;;;6.80;;
44366;SDS011;30086;57.660;12.000;2022-12-16T03:15:14;15.15;;;6.63;;
44366;SDS011;30086;57.660;12.000;2022-12-16T03:17:40;16.52;;;5.78;;
44366;SDS011;30086;57.660;12.000;2022-12-16T03:20:10;13.70;;;5.03;;
44366;SDS011;30086;57.660;12.000;2022-12-16T03:22:37;9.93;;;4.45;;
44366;SDS011;30086;57.660;12.000;2022-12-16T03:25:05;11.77;;;4.85;;
44366;SDS011;30086;57.660;12.000;2022-12-16T03:27:40;10.73;;;4.85;;
44366;SDS011;30086;57.660;12.000;2022-12-16T03:30:12;12.20;;;4.82;;
44366;SDS011;30086;57.660;12.000;2022-12-16T03:32:42;18.02;;;7.20;;
44366;SDS011;30086;57.660;12.000;2022-12-16T03:35:15;11.77;;;5.50;;
44366;SDS011;30086;57.660;12.000;2022-12-16T03:37:43;13.10;;;5.32;;
44366;SDS011;30086;57.660;12.000;2022-12-16T03:40:12;14.02;;;6.05;;
44366;SDS011;30086;57.660;12.000;2022-12-16T03:42:38;18.05;;;6.15;;
44366;SDS011;30086;57.660;12.000;2022-12-16T03:45:05;14.40;;;5.47;;
44366;SDS011;30086;57.660;12.000;2022-12-16T03:47:32;13.30;;;5.78;;
44366;SDS011;30086;57.660;12.000;2022-12-16T03:49:58;12.48;;;5.43;;
44366;SDS011;30086;57.660;12.000;2022-12-16T03:52:24;13.27;;;5.97;;
44366;SDS011;30086;57.660;12.000;2022-12-16T03:54:50;14.38;;;5.65;;
44366;SDS011;30086;57.660;12.000;2022-12-16T03:57:16;11.40;;;5.78;;
44366;SDS011;30086;57.660;12.000;2022-12-16T03:59:43;15.23;;;5.95;;
44366;SDS011;30086;57.660;12.000;2022-12-16T04:02:09;13.05;;;6.15;;
44366;SDS011;30086;57.660;12.000;2022-12-16T04:04:35;12.27;;;5.40;;
44366;SDS011;30086;57.660;12.000;2022-12-16T04:07:01;15.73;;;4.97;;
44366;SDS011;30086;57.660;12.000;2022-12-16T04:09:46;10.07;;;4.82;;
44366;SDS011;30086;57.660;12.000;2022-12-16T04:12:12;9.38;;;5.15;;
44366;SDS011;30086;57.660;12.000;2022-12-16T04:14:56;10.88;;;5.22;;
44366;SDS011;30086;57.660;12.000;2022-12-16T04:17:41;15.70;;;6.03;;
44366;SDS011;30086;57.660;12.000;2022-12-16T04:20:34;13.07;;;5.50;;
44366;SDS011;30086;57.660;12.000;2022-12-16T04:23:19;13.43;;;5.72;;
44366;SDS011;30086;57.660;12.000;2022-12-16T04:26:04;11.95;;;4.95;;
44366;SDS011;30086;57.660;12.000;2022-12-16T04:28:30;9.32;;;5.15;;
44366;SDS011;30086;57.660;12.000;2022-12-16T04:30:59;12.95;;;5.20;;
44366;SDS011;30086;57.660;12.000;2022-12-16T04:33:25;10.98;;;4.68;;
44366;SDS011;30086;57.660;12.000;2022-12-16T04:36:10;12.40;;;4.90;;
44366;SDS011;30086;57.660;12.000;2022-12-16T04:38:56;14.65;;;5.35;;
44366;SDS011;30086;57.660;12.000;2022-12-16T04:41:40;12.65;;;5.30;;
44366;SDS011;30086;57.660;12.000;2022-12-16T04:44:25;7.93;;;3.65;;
44366;SDS011;30086;57.660;12.000;2022-12-16T04:47:09;11.98;;;5.45;;
44366;SDS011;30086;57.660;12.000;2022-12-16T04:49:54;14.10;;;4.70;;
44366;SDS011;30086;57.660;12.000;2022-12-16T04:52:39;10.68;;;5.30;;
44366;SDS011;30086;57.660;12.000;2022-12-16T04:55:23;12.23;;;4.80;;
44366;SDS011;30086;57.660;12.000;2022-12-16T04:58:08;13.93;;;5.10;;
44366;SDS011;30086;57.660;12.000;2022-12-16T05:00:52;11.57;;;4.78;;
44366;SDS011;30086;57.660;12.000;2022-12-16T05:03:37;11.82;;;4.43;;
44366;SDS011;30086;57.660;12.000;2022-12-16T05:06:21;12.20;;;5.30;;
44366;SDS011;30086;57.660;12.000;2022-12-16T05:09:06;10.52;;;5.03;;
44366;SDS011;30086;57.660;12.000;2022-12-16T05:11:51;15.75;;;5.07;;
44366;SDS011;30086;57.660;12.000;2022-12-16T05:14:35;25.88;;;5.30;;
44366;SDS011;30086;57.660;12.000;2022-12-16T05:17:20;14.75;;;5.35;;
44366;SDS011;30086;57.660;12.000;2022-12-16T05:20:05;9.02;;;4.32;;
44366;SDS011;30086;57.660;12.000;2022-12-16T05:22:50;9.32;;;4.45;;
44366;SDS011;30086;57.660;12.000;2022-12-16T05:25:35;13.10;;;4.07;;
44366;SDS011;30086;57.660;12.000;2022-12-16T05:28:20;17.42;;;4.30;;
44366;SDS011;30086;57.660;12.000;2022-12-16T05:31:04;12.88;;;4.25;;
44366;SDS011;30086;57.660;12.000;2022-12-16T05:33:49;7.63;;;3.60;;
44366;SDS011;30086;57.660;12.000;2022-12-16T05:36:33;9.77;;;4.35;;
44366;SDS011;30086;57.660;12.000;2022-12-16T05:39:18;9.52;;;4.13;;
44366;SDS011;30086;57.660;12.000;2022-12-16T05:42:03;8.60;;;3.90;;
44366;SDS011;30086;57.660;12.000;2022-12-16T05:44:50;10.80;;;4.30;;
44366;SDS011;30086;57.660;12.000;2022-12-16T05:47:34;9.68;;;4.65;;
44366;SDS011;30086;57.660;12.000;2022-12-16T05:50:19;12.75;;;4.57;;
44366;SDS011;30086;57.660;12.000;2022-12-16T05:53:03;9.15;;;4.25;;
44366;SDS011;30086;57.660;12.000;2022-12-16T05:55:48;11.55;;;4.68;;
44366;SDS011;30086;57.660;12.000;2022-12-16T05:58:33;14.00;;;5.38;;
44366;SDS011;30086;57.660;12.000;2022-12-16T06:01:17;11.77;;;4.30;;
44366;SDS011;30086;57.660;12.000;2022-12-16T06:04:02;11.20;;;4.32;;
44366;SDS011;30086;57.660;12.000;2022-12-16T06:06:47;8.55;;;4.60;;
44366;SDS011;30086;57.660;12.000;2022-12-16T06:09:31;11.82;;;4.53;;
44366;SDS011;30086;57.660;12.000;2022-12-16T06:12:16;12.60;;;4.82;;
44366;SDS011;30086;57.660;12.000;2022-12-16T06:15:01;11.93;;;4.18;;
44366;SDS011;30086;57.660;12.000;2022-12-16T06:17:49;10.75;;;4.40;;
44366;SDS011;30086;57.660;12.000;2022-12-16T06:20:34;11.88;;;5.43;;
44366;SDS011;30086;57.660;12.000;2022-12-16T06:23:19;14.13;;;4.80;;
44366;SDS011;30086;57.660;12.000;2022-12-16T06:26:04;10.02;;;4.50;;
44366;SDS011;30086;57.660;12.000;2022-12-16T06:28:49;17.90;;;5.75;;
44366;SDS011;30086;57.660;12.000;2022-12-16T06:31:33;24.60;;;8.13;;
44366;SDS011;30086;57.660;12.000;2022-12-16T06:34:20;21.00;;;7.65;;
44366;SDS011;30086;57.660;12.000;2022-12-16T06:37:04;14.52;;;5.80;;
44366;SDS011;30086;57.660;12.000;2022-12-16T06:39:49;16.75;;;6.85;;
44366;SDS011;30086;57.660;12.000;2022-12-16T06:42:33;11.30;;;5.50;;
44366;SDS011;30086;57.660;12.000;2022-12-16T06:45:18;12.15;;;4.90;;
44366;SDS011;30086;57.660;12.000;2022-12-16T06:48:02;12.23;;;4.22;;
44366;SDS011;30086;57.660;12.000;2022-12-16T06:50:47;12.93;;;4.57;;
44366;SDS011;30086;57.660;12.000;2022-12-16T06:53:32;10.45;;;5.10;;
44366;SDS011;30086;57.660;12.000;2022-12-16T06:56:16;17.30;;;4.35;;
44366;SDS011;30086;57.660;12.000;2022-12-16T06:59:01;9.43;;;4.40;;
44366;SDS011;30086;57.660;12.000;2022-12-16T07:01:46;14.98;;;4.55;;
44366;SDS011;30086;57.660;12.000;2022-12-16T07:04:30;13.25;;;5.57;;
44366;SDS011;30086;57.660;12.000;2022-12-16T07:07:15;15.75;;;4.28;;
44366;SDS011;30086;57.660;12.000;2022-12-16T07:10:00;11.23;;;5.78;;
44366;SDS011;30086;57.660;12.000;2022-12-16T07:12:44;15.85;;;5.90;;
44366;SDS011;30086;57.660;12.000;2022-12-16T07:15:29;16.15;;;5.70;;
44366;SDS011;30086;57.660;12.000;2022-12-16T07:18:13;13.98;;;5.28;;
44366;SDS011;30086;57.660;12.000;2022-12-16T07:20:58;13.95;;;6.03;;
44366;SDS011;30086;57.660;12.000;2022-12-16T07:23:43;12.30;;;5.57;;
44366;SDS011;30086;57.660;12.000;2022-12-16T07:26:27;13.77;;;5.93;;
44366;SDS011;30086;57.660;12.000;2022-12-16T07:29:12;10.38;;;5.32;;
44366;SDS011;30086;57.660;12.000;2022-12-16T07:31:57;15.98;;;6.47;;
44366;SDS011;30086;57.660;12.000;2022-12-16T07:34:42;14.00;;;6.03;;
44366;SDS011;30086;57.660;12.000;2022-12-16T07:37:35;16.52;;;6.10;;
44366;SDS011;30086;57.660;12.000;2022-12-16T07:40:19;15.93;;;5.00;;
44366;SDS011;30086;57.660;12.000;2022-12-16T07:43:04;14.07;;;5.45;;
44366;SDS011;30086;57.660;12.000;2022-12-16T07:45:49;15.55;;;5.95;;
44366;SDS011;30086;57.660;12.000;2022-12-16T07:48:33;13.20;;;5.20;;
44366;SDS011;30086;57.660;12.000;2022-12-16T07:51:18;12.57;;;5.60;;
44366;SDS011;30086;57.660;12.000;2022-12-16T07:54:03;14.40;;;4.82;;
44366;SDS011;30086;57.660;12.000;2022-12-16T07:56:47;10.80;;;4.75;;
44366;SDS011;30086;57.660;12.000;2022-12-16T07:59:32;17.63;;;5.68;;
44366;SDS011;30086;57.660;12.000;2022-12-16T08:02:16;20.33;;;6.22;;
44366;SDS011;30086;57.660;12.000;2022-12-16T08:05:21;18.58;;;4.28;;
44366;SDS011;30086;57.660;12.000;2022-12-16T08:08:06;15.75;;;5.78;;
44366;SDS011;30086;57.660;12.000;2022-12-16T08:10:50;18.88;;;6.07;;
44366;SDS011;30086;57.660;12.000;2022-12-16T08:13:35;20.20;;;5.88;;
44366;SDS011;30086;57.660;12.000;2022-12-16T08:16:20;23.98;;;5.45;;
44366;SDS011;30086;57.660;12.000;2022-12-16T08:19:04;22.13;;;5.82;;
44366;SDS011;30086;57.660;12.000;2022-12-16T08:21:49;9.73;;;4.70;;
44366;SDS011;30086;57.660;12.000;2022-12-16T08:24:34;14.40;;;5.57;;
44366;SDS011;30086;57.660;12.000;2022-12-16T08:27:18;34.58;;;6.25;;
44366;SDS011;30086;57.660;12.000;2022-12-16T08:30:04;25.92;;;6.05;;
44366;SDS011;30086;57.660;12.000;2022-12-16T08:32:49;31.88;;;5.93;;
44366;SDS011;30086;57.660;12.000;2022-12-16T08:35:34;29.77;;;5.50;;
44366;SDS011;30086;57.660;12.000;2022-12-16T08:38:18;15.88;;;5.38;;
44366;SDS011;30086;57.660;12.000;2022-12-16T08:41:03;15.35;;;5.22;;
44366;SDS011;30086;57.660;12.000;2022-12-16T08:43:48;10.90;;;5.53;;
44366;SDS011;30086;57.660;12.000;2022-12-16T08:46:33;24.98;;;6.00;;
44366;SDS011;30086;57.660;12.000;2022-12-16T08:49:17;17.77;;;5.35;;
44366;SDS011;30086;57.660;12.000;2022-12-16T08:52:02;23.70;;;5.93;;
44366;SDS011;30086;57.660;12.000;2022-12-16T08:54:47;27.75;;;4.68;;
44366;SDS011;30086;57.660;12.000;2022-12-16T08:57:32;22.55;;;6.70;;
44366;SDS011;30086;57.660;12.000;2022-12-16T09:00:16;17.73;;;5.57;;
44366;SDS011;30086;57.660;12.000;2022-12-16T09:03:01;19.15;;;6.43;;
44366;SDS011;30086;57.660;12.000;2022-12-16T09:05:46;22.75;;;7.55;;
44366;SDS011;30086;57.660;12.000;2022-12-16T09:08:30;35.03;;;9.30;;
44366;SDS011;30086;57.660;12.000;2022-12-16T09:11:15;27.90;;;7.57;;
44366;SDS011;30086;57.660;12.000;2022-12-16T09:14:00;32.67;;;9.05;;
44366;SDS011;30086;57.660;12.000;2022-12-16T09:16:44;28.63;;;7.78;;
44366;SDS011;30086;57.660;12.000;2022-12-16T09:19:29;38.53;;;8.65;;
44366;SDS011;30086;57.660;12.000;2022-12-16T09:22:14;24.77;;;8.30;;
44366;SDS011;30086;57.660;12.000;2022-12-16T09:25:16;23.02;;;8.32;;
44366;SDS011;30086;57.660;12.000;2022-12-16T09:28:01;17.95;;;7.78;;
44366;SDS011;30086;57.660;12.000;2022-12-16T09:30:45;37.95;;;9.65;;
44366;SDS011;30086;57.660;12.000;2022-12-16T09:33:30;37.00;;;10.63;;
44366;SDS011;30086;57.660;12.000;2022-12-16T09:36:15;80.38;;;11.27;;
44366;SDS011;30086;57.660;12.000;2022-12-16T09:38:59;31.40;;;9.35;;
44366;SDS011;30086;57.660;12.000;2022-12-16T09:41:48;46.13;;;9.60;;
44366;SDS011;30086;57.660;12.000;2022-12-16T09:44:42;103.50;;;13.27;;
44366;SDS011;30086;57.660;12.000;2022-12-16T09:47:33;88.28;;;13.15;;
44366;SDS011;30086;57.660;12.000;2022-12-16T09:50:23;92.72;;;11.60;;
44366;SDS011;30086;57.660;12.000;2022-12-16T09:53:10;89.07;;;12.10;;
44366;SDS011;30086;57.660;12.000;2022-12-16T09:55:56;98.93;;;13.10;;
44366;SDS011;30086;57.660;12.000;2022-12-16T09:58:45;92.40;;;13.15;;
44366;SDS011;30086;57.660;12.000;2022-12-16T10:01:35;77.30;;;13.82;;
44366;SDS011;30086;57.660;12.000;2022-12-16T10:04:21;48.58;;;12.65;;
44366;SDS011;30086;57.660;12.000;2022-12-16T10:07:10;45.28;;;14.07;;
44366;SDS011;30086;57.660;12.000;2022-12-16T10:10:02;35.85;;;11.23;;
44366;SDS011;30086;57.660;12.000;2022-12-16T10:12:55;33.67;;;10.57;;
44366;SDS011;30086;57.660;12.000;2022-12-16T10:21:35;27.60;;;9.93;;
44366;SDS011;30086;57.660;12.000;2022-12-16T10:27:49;30.75;;;11.15;;
44366;SDS011;30086;57.660;12.000;2022-12-16T10:30:36;26.15;;;10.23;;
44366;SDS011;30086;57.660;12.000;2022-12-16T10:33:23;26.08;;;9.68;;
44366;SDS011;30086;57.660;12.000;2022-12-16T10:36:10;22.83;;;8.88;;
44366;SDS011;30086;57.660;12.000;2022-12-16T10:38:57;19.95;;;8.63;;
44366;SDS011;30086;57.660;12.000;2022-12-16T10:41:46;21.60;;;9.18;;
44366;SDS011;30086;57.660;12.000;2022-12-16T10:47:19;20.15;;;8.00;;
44366;SDS011;30086;57.660;12.000;2022-12-16T10:50:04;20.55;;;8.25;;
44366;SDS011;30086;57.660;12.000;2022-12-16T10:52:53;21.52;;;8.40;;
44366;SDS011;30086;57.660;12.000;2022-12-16T10:55:48;21.75;;;7.95;;
44366;SDS011;30086;57.660;12.000;2022-12-16T10:58:46;24.00;;;7.70;;
44366;SDS011;30086;57.660;12.000;2022-12-16T11:01:34;24.88;;;8.40;;
44366;SDS011;30086;57.660;12.000;2022-12-16T11:04:52;37.30;;;10.55;;
44366;SDS011;30086;57.660;12.000;2022-12-16T11:07:31;35.10;;;10.35;;
44366;SDS011;30086;57.660;12.000;2022-12-16T11:13:21;33.72;;;9.77;;
44366;SDS011;30086;57.660;12.000;2022-12-16T11:16:08;38.33;;;9.90;;
44366;SDS011;30086;57.660;12.000;2022-12-16T11:18:53;61.70;;;10.65;;
44366;SDS011;30086;57.660;12.000;2022-12-16T11:21:38;30.50;;;9.43;;
44366;SDS011;30086;57.660;12.000;2022-12-16T11:24:24;36.13;;;9.13;;
44366;SDS011;30086;57.660;12.000;2022-12-16T11:27:13;33.10;;;9.95;;
44366;SDS011;30086;57.660;12.000;2022-12-16T11:30:01;27.38;;;9.57;;
44366;SDS011;30086;57.660;12.000;2022-12-16T11:32:47;35.20;;;10.20;;
44366;SDS011;30086;57.660;12.000;2022-12-16T11:35:33;49.03;;;10.52;;
44366;SDS011;30086;57.660;12.000;2022-12-16T11:41:47;38.20;;;9.25;;
44366;SDS011;30086;57.660;12.000;2022-12-16T11:44:43;27.00;;;9.25;;
44366;SDS011;30086;57.660;12.000;2022-12-16T11:50:16;34.95;;;9.93;;
44366;SDS011;30086;57.660;12.000;2022-12-16T11:53:02;24.80;;;9.23;;
44366;SDS011;30086;57.660;12.000;2022-12-16T11:55:49;25.05;;;8.07;;
44366;SDS011;30086;57.660;12.000;2022-12-16T11:58:44;28.98;;;9.38;;
44366;SDS011;30086;57.660;12.000;2022-12-16T12:01:39;27.05;;;9.90;;
44366;SDS011;30086;57.660;12.000;2022-12-16T12:04:25;20.98;;;9.88;;
44366;SDS011;30086;57.660;12.000;2022-12-16T12:13:07;26.98;;;9.23;;
44366;SDS011;30086;57.660;12.000;2022-12-16T12:24:39;42.08;;;11.38;;
44366;SDS011;30086;57.660;12.000;2022-12-16T12:27:29;62.15;;;12.70;;
44366;SDS011;30086;57.660;12.000;2022-12-16T12:30:19;48.60;;;10.50;;
44366;SDS011;30086;57.660;12.000;2022-12-16T12:36:23;45.37;;;11.13;;
44366;SDS011;30086;57.660;12.000;2022-12-16T12:47:25;52.40;;;11.38;;
44366;SDS011;30086;57.660;12.000;2022-12-16T12:58:49;43.65;;;12.50;;
44366;SDS011;30086;57.660;12.000;2022-12-16T13:01:35;50.72;;;13.93;;
44366;SDS011;30086;57.660;12.000;2022-12-16T13:04:21;38.13;;;12.45;;
44366;SDS011;30086;57.660;12.000;2022-12-16T13:07:09;47.15;;;12.70;;
44366;SDS011;30086;57.660;12.000;2022-12-16T13:16:03;70.60;;;14.85;;
44366;SDS011;30086;57.660;12.000;2022-12-16T13:18:47;57.25;;;15.73;;
44366;SDS011;30086;57.660;12.000;2022-12-16T13:27:11;61.17;;;16.15;;
44366;SDS011;30086;57.660;12.000;2022-12-16T13:30:01;63.72;;;16.65;;
44366;SDS011;30086;57.660;12.000;2022-12-16T13:32:56;68.82;;;16.65;;
44366;SDS011;30086;57.660;12.000;2022-12-16T13:35:52;67.15;;;17.92;;
44366;SDS011;30086;57.660;12.000;2022-12-16T13:38:47;53.47;;;15.60;;
44366;SDS011;30086;57.660;12.000;2022-12-16T13:53:22;63.03;;;18.10;;
44366;SDS011;30086;57.660;12.000;2022-12-16T13:56:08;49.35;;;17.25;;
44366;SDS011;30086;57.660;12.000;2022-12-16T13:58:58;58.22;;;18.33;;
44366;SDS011;30086;57.660;12.000;2022-12-16T14:01:55;52.67;;;16.25;;
44366;SDS011;30086;57.660;12.000;2022-12-16T14:04:45;81.05;;;18.30;;
44366;SDS011;30086;57.660;12.000;2022-12-16T14:07:34;76.95;;;18.65;;
44366;SDS011;30086;57.660;12.000;2022-12-16T14:10:22;67.80;;;18.48;;
44366;SDS011;30086;57.660;12.000;2022-12-16T14:13:21;73.88;;;18.98;;
44366;SDS011;30086;57.660;12.000;2022-12-16T14:21:57;61.65;;;18.52;;
44366;SDS011;30086;57.660;12.000;2022-12-16T14:24:43;69.10;;;17.88;;
44366;SDS011;30086;57.660;12.000;2022-12-16T14:27:31;61.63;;;17.02;;
44366;SDS011;30086;57.660;12.000;2022-12-16T14:30:17;70.55;;;17.20;;
44366;SDS011;30086;57.660;12.000;2022-12-16T14:33:15;74.45;;;17.10;;
44366;SDS011;30086;57.660;12.000;2022-12-16T14:36:00;72.60;;;16.98;;
44366;SDS011;30086;57.660;12.000;2022-12-16T14:38:48;95.15;;;18.15;;
44366;SDS011;30086;57.660;12.000;2022-12-16T14:41:33;72.10;;;19.98;;
44366;SDS011;30086;57.660;12.000;2022-12-16T14:44:31;60.80;;;18.33;;
44366;SDS011;30086;57.660;12.000;2022-12-16T14:47:16;63.78;;;17.80;;
44366;SDS011;30086;57.660;12.000;2022-12-16T14:50:01;60.35;;;16.38;;
44366;SDS011;30086;57.660;12.000;2022-12-16T14:52:46;72.72;;;16.90;;
44366;SDS011;30086;57.660;12.000;2022-12-16T14:55:31;63.28;;;18.50;;
44366;SDS011;30086;57.660;12.000;2022-12-16T14:58:17;85.03;;;18.40;;
44366;SDS011;30086;57.660;12.000;2022-12-16T15:01:13;69.00;;;18.05;;
44366;SDS011;30086;57.660;12.000;2022-12-16T15:03:58;59.17;;;17.65;;
44366;SDS011;30086;57.660;12.000;2022-12-16T15:06:45;60.97;;;17.35;;
44366;SDS011;30086;57.660;12.000;2022-12-16T15:09:32;66.25;;;16.23;;
44366;SDS011;30086;57.660;12.000;2022-12-16T15:12:20;69.13;;;18.40;;
44366;SDS011;30086;57.660;12.000;2022-12-16T15:15:08;84.05;;;18.33;;
44366;SDS011;30086;57.660;12.000;2022-12-16T15:17:54;66.32;;;17.60;;
44366;SDS011;30086;57.660;12.000;2022-12-16T15:20:43;80.50;;;20.10;;
44366;SDS011;30086;57.660;12.000;2022-12-16T15:23:37;68.63;;;16.52;;
44366;SDS011;30086;57.660;12.000;2022-12-16T15:26:23;66.20;;;18.77;;
44366;SDS011;30086;57.660;12.000;2022-12-16T15:37:53;58.28;;;18.10;;
44366;SDS011;30086;57.660;12.000;2022-12-16T15:40:39;60.20;;;17.10;;
44366;SDS011;30086;57.660;12.000;2022-12-16T15:43:31;60.95;;;17.05;;
44366;SDS011;30086;57.660;12.000;2022-12-16T15:46:23;48.45;;;14.52;;
44366;SDS011;30086;57.660;12.000;2022-12-16T15:49:27;56.60;;;15.95;;
44366;SDS011;30086;57.660;12.000;2022-12-16T16:01:06;55.15;;;15.43;;
44366;SDS011;30086;57.660;12.000;2022-12-16T16:03:52;53.33;;;15.38;;
44366;SDS011;30086;57.660;12.000;2022-12-16T16:06:37;42.47;;;14.30;;
44366;SDS011;30086;57.660;12.000;2022-12-16T16:09:28;59.63;;;15.68;;
44366;SDS011;30086;57.660;12.000;2022-12-16T16:12:15;53.88;;;16.10;;
44366;SDS011;30086;57.660;12.000;2022-12-16T16:15:00;44.90;;;13.77;;
44366;SDS011;30086;57.660;12.000;2022-12-16T16:17:49;46.40;;;13.85;;
44366;SDS011;30086;57.660;12.000;2022-12-16T16:20:37;42.72;;;14.07;;
44366;SDS011;30086;57.660;12.000;2022-12-16T16:23:21;49.28;;;16.20;;
44366;SDS011;30086;57.660;12.000;2022-12-16T16:26:08;45.25;;;16.58;;
44366;SDS011;30086;57.660;12.000;2022-12-16T16:28:53;51.67;;;14.50;;
44366;SDS011;30086;57.660;12.000;2022-12-16T16:31:38;37.90;;;12.95;;
44366;SDS011;30086;57.660;12.000;2022-12-16T16:34:23;43.83;;;14.85;;
44366;SDS011;30086;57.660;12.000;2022-12-16T16:37:10;37.83;;;13.95;;
44366;SDS011;30086;57.660;12.000;2022-12-16T16:39:56;46.72;;;14.95;;
44366;SDS011;30086;57.660;12.000;2022-12-16T16:42:41;44.03;;;14.02;;
44366;SDS011;30086;57.660;12.000;2022-12-16T16:45:25;43.45;;;13.55;;
44366;SDS011;30086;57.660;12.000;2022-12-16T16:48:11;39.05;;;12.38;;
44366;SDS011;30086;57.660;12.000;2022-12-16T16:50:57;41.70;;;14.82;;
44366;SDS011;30086;57.660;12.000;2022-12-16T16:53:42;38.35;;;13.60;;
44366;SDS011;30086;57.660;12.000;2022-12-16T16:56:28;52.78;;;15.15;;
44366;SDS011;30086;57.660;12.000;2022-12-16T16:59:16;45.30;;;13.73;;
44366;SDS011;30086;57.660;12.000;2022-12-16T17:02:00;42.95;;;13.55;;
44366;SDS011;30086;57.660;12.000;2022-12-16T17:04:48;41.95;;;14.02;;
44366;SDS011;30086;57.660;12.000;2022-12-16T17:07:42;51.10;;;14.55;;
44366;SDS011;30086;57.660;12.000;2022-12-16T17:10:27;59.85;;;15.93;;
44366;SDS011;30086;57.660;12.000;2022-12-16T17:13:12;55.10;;;16.40;;
44366;SDS011;30086;57.660;12.000;2022-12-16T17:15:56;50.08;;;15.73;;
44366;SDS011;30086;57.660;12.000;2022-12-16T17:18:43;54.38;;;14.77;;
44366;SDS011;30086;57.660;12.000;2022-12-16T17:21:28;56.67;;;15.80;;
44366;SDS011;30086;57.660;12.000;2022-12-16T17:24:12;50.00;;;17.13;;
44366;SDS011;30086;57.660;12.000;2022-12-16T17:26:57;53.08;;;16.20;;
44366;SDS011;30086;57.660;12.000;2022-12-16T17:29:42;52.55;;;16.42;;
44366;SDS011;30086;57.660;12.000;2022-12-16T17:32:26;51.53;;;16.70;;
44366;SDS011;30086;57.660;12.000;2022-12-16T17:35:11;54.88;;;16.35;;
44366;SDS011;30086;57.660;12.000;2022-12-16T17:37:56;51.03;;;16.33;;
44366;SDS011;30086;57.660;12.000;2022-12-16T17:40:40;45.45;;;13.65;;
44366;SDS011;30086;57.660;12.000;2022-12-16T17:43:25;46.97;;;15.05;;
44366;SDS011;30086;57.660;12.000;2022-12-16T17:46:10;55.75;;;16.33;;
44366;SDS011;30086;57.660;12.000;2022-12-16T17:48:55;66.68;;;20.30;;
44366;SDS011;30086;57.660;12.000;2022-12-16T17:51:41;51.17;;;15.80;;